Time;durP1;ratioP1;P1;durP2;ratioP2;P2;SDS_P1;SDS_P2;PMS_P1;PMS_P2;Temp;Humidity;BMP_temperature;BMP_pressure;BME280_temperature;BME280_humidity;BME280_pressure;Samples;Min_cycle;Max_cycle;Signal;HPM_P1;HPM_P2
2021/04/22 04:57:17;;;;;;;15.88;13.28;;;;;;;11.43;74.71;100132.64;1828634;77;21959;-61
2021/04/22 04:59:46;;;;;;;14.13;12.63;;;;;;;11.64;73.01;100126.16;1803071;79;21582;-61
2021/04/22 05:02:15;;;;;;;13.78;11.55;;;;;;;11.91;71.50;100128.48;1793008;77;22152;-62
2021/04/22 05:04:44;;;;;;;12.15;10.85;;;;;;;12.21;70.82;100130.98;1788976;77;21214;-63
2021/04/22 05:07:14;;;;;;;11.83;10.65;;;;;;;12.55;69.65;100135.42;1793207;77;21500;-64
2021/04/22 05:09:44;;;;;;;12.93;10.38;;;;;;;12.92;68.64;100124.30;1784286;79;21577;-64
2021/04/22 05:12:15;;;;;;;11.40;10.10;;;;;;;13.32;66.78;100119.96;1788665;79;21633;-60
2021/04/22 05:14:44;;;;;;;11.28;9.93;;;;;;;13.67;65.57;100121.52;1793149;79;22225;-63
2021/04/22 05:17:13;;;;;;;12.25;9.98;;;;;;;13.96;64.96;100120.87;1733792;82;21713;-65
2021/04/22 05:19:43;;;;;;;12.40;10.72;;;;;;;14.27;63.59;100122.19;1739336;81;21009;-62
2021/04/22 05:22:14;;;;;;;12.15;10.60;;;;;;;14.52;62.46;100125.72;1736582;81;20993;-65
2021/04/22 05:24:42;;;;;;;12.88;9.55;;;;;;;14.75;61.75;100124.93;1742131;81;21084;-59
2021/04/22 05:27:12;;;;;;;14.20;10.00;;;;;;;14.97;61.10;100125.51;1743337;81;22288;-71
2021/04/22 05:29:43;;;;;;;12.10;10.13;;;;;;;15.15;60.08;100129.42;1744749;80;21013;-60
2021/04/22 05:32:12;;;;;;;11.85;9.98;;;;;;;15.33;59.27;100133.29;1745569;80;21643;-64
2021/04/22 05:34:41;;;;;;;13.78;10.30;;;;;;;15.45;59.05;100128.92;1757551;80;21191;-66
2021/04/22 05:37:11;;;;;;;13.98;9.98;;;;;;;15.63;58.72;100137.22;1725818;82;21228;-69
2021/04/22 05:39:40;;;;;;;12.30;9.33;;;;;;;15.86;58.04;100133.70;1736676;81;22073;-62
2021/04/22 05:42:08;;;;;;;10.05;9.05;;;;;;;16.03;57.10;100132.38;1743496;82;21674;-63
2021/04/22 05:44:39;;;;;;;9.93;8.95;;;;;;;16.17;56.75;100127.38;1738860;80;21096;-61
2021/04/22 05:47:07;;;;;;;11.83;9.20;;;;;;;16.33;56.39;100130.02;1750670;80;21639;-63
2021/04/22 05:49:37;;;;;;;10.88;9.35;;;;;;;16.48;56.17;100133.69;1738498;80;21526;-69
2021/04/22 05:52:07;;;;;;;10.45;9.25;;;;;;;16.66;55.26;100134.91;1739190;80;21614;-63
2021/04/22 05:54:36;;;;;;;10.70;9.18;;;;;;;16.83;54.49;100141.42;1740202;80;22111;-70
2021/04/22 05:57:06;;;;;;;9.53;8.58;;;;;;;16.89;53.96;100140.94;1737926;80;21204;-63
2021/04/22 05:59:35;;;;;;;11.65;9.60;;;;;;;16.91;54.08;100137.70;1782547;79;21078;-65
2021/04/22 06:02:04;;;;;;;11.55;10.03;;;;;;;17.03;54.21;100143.30;1784407;79;21577;-64
2021/04/22 06:04:32;;;;;;;11.80;9.05;;;;;;;17.20;53.51;100155.05;1786478;78;21672;-70
2021/04/22 06:07:03;;;;;;;9.80;8.78;;;;;;;17.33;53.01;100159.68;1707229;83;21063;-65
2021/04/22 06:09:32;;;;;;;12.43;9.43;;;;;;;17.37;52.45;100158.47;1803439;78;21718;-64
2021/04/22 06:12:01;;;;;;;10.55;9.33;;;;;;;17.34;52.61;100152.14;1802274;79;21575;-61
2021/04/22 06:14:29;;;;;;;15.25;9.05;;;;;;;17.34;52.73;100152.98;1799189;79;21123;-63
2021/04/22 06:16:58;;;;;;;11.97;8.50;;;;;;;17.44;52.48;100155.69;1802569;79;21652;-67
2021/04/22 06:19:27;;;;;;;11.65;9.70;;;;;;;17.58;52.13;100142.22;1812202;78;21661;-67
2021/04/22 06:21:55;;;;;;;11.50;9.58;;;;;;;17.73;52.13;100141.44;1808682;78;21151;-65
2021/04/22 06:24:24;;;;;;;10.08;9.13;;;;;;;17.92;51.27;100145.52;1802705;79;21567;-69
2021/04/22 06:26:53;;;;;;;10.20;8.65;;;;;;;17.97;50.66;100149.08;1799414;79;21498;-62
2021/04/22 06:29:21;;;;;;;10.63;8.40;;;;;;;17.81;50.46;100149.53;1783564;79;22151;-61
2021/04/22 06:31:50;;;;;;;9.23;8.33;;;;;;;17.49;50.57;100149.56;1713681;82;21664;-66
2021/04/22 06:34:18;;;;;;;9.75;8.75;;;;;;;17.14;51.04;100159.53;1721470;82;21682;-66
2021/04/22 06:36:49;;;;;;;9.00;8.10;;;;;;;16.87;51.46;100147.63;1734828;82;21583;-66
2021/04/22 06:39:18;;;;;;;10.45;9.10;;;;;;;16.75;51.93;100154.38;1724533;82;21112;-62
2021/04/22 06:41:47;;;;;;;9.40;8.40;;;;;;;16.59;52.04;100156.03;1727938;82;23584;-63
2021/04/22 06:44:15;;;;;;;10.55;9.05;;;;;;;16.39;52.72;100157.62;1725613;81;21575;-64
2021/04/22 06:46:44;;;;;;;10.50;8.83;;;;;;;16.22;53.21;100159.39;1722158;83;21632;-62
2021/04/22 06:49:14;;;;;;;10.80;9.15;;;;;;;15.99;53.59;100157.24;1789789;78;21539;-63
2021/04/22 06:51:42;;;;;;;12.25;9.00;;;;;;;15.71;54.25;100155.86;1824485;78;21021;-67
2021/04/22 06:54:11;;;;;;;13.28;9.23;;;;;;;15.46;55.21;100158.16;1780183;78;22304;-64
2021/04/22 06:56:40;;;;;;;9.63;8.63;;;;;;;15.26;55.47;100156.98;1797032;79;21637;-63
2021/04/22 06:59:08;;;;;;;15.05;8.38;;;;;;;15.19;55.57;100153.16;1803253;77;20989;-63
2021/04/22 07:01:37;;;;;;;12.35;8.95;;;;;;;15.22;55.87;100148.14;1793443;77;21562;-63
2021/04/22 07:04:06;;;;;;;9.53;8.58;;;;;;;15.31;56.25;100149.62;1802240;79;21047;-64
2021/04/22 07:06:35;;;;;;;11.75;10.13;;;;;;;15.43;55.81;100150.98;1790020;77;22082;-62
2021/04/22 07:09:04;;;;;;;10.70;9.60;;;;;;;15.52;55.88;100152.45;1782677;79;21680;-61
2021/04/22 07:11:33;;;;;;;10.25;9.20;;;;;;;15.68;55.38;100162.65;1733431;82;20939;-60
2021/04/22 07:14:03;;;;;;;11.93;9.30;;;;;;;15.81;55.25;100164.72;1731606;82;21005;-61
2021/04/22 07:16:32;;;;;;;9.20;8.30;;;;;;;15.87;55.02;100161.63;1734425;82;21029;-63
2021/04/22 07:19:00;;;;;;;9.03;8.13;;;;;;;15.92;54.97;100152.09;1735485;80;22159;-62
2021/04/22 07:21:29;;;;;;;10.25;8.23;;;;;;;16.02;54.66;100156.98;1739422;80;21092;-62
2021/04/22 07:23:57;;;;;;;14.28;8.70;;;;;;;16.12;54.82;100160.58;1741100;82;21729;-61
2021/04/22 07:26:26;;;;;;;12.73;8.60;;;;;;;16.40;54.75;100161.89;1721850;83;22358;-64
2021/04/22 07:28:55;;;;;;;9.18;8.28;;;;;;;16.87;54.01;100166.05;1732068;80;21135;-61
2021/04/22 07:31:34;;;;;;;9.93;7.08;;;;;;;17.33;52.68;100155.25;1746391;82;22071;-61
2021/04/22 07:34:03;;;;;;;8.05;7.25;;;;;;;17.73;51.74;100151.97;1725261;80;21013;-68
2021/04/22 07:36:32;;;;;;;9.30;8.25;;;;;;;17.97;51.21;100163.56;1733653;82;21053;-62
2021/04/22 07:39:01;;;;;;;9.25;8.10;;;;;;;18.12;50.51;100161.41;1721890;82;21635;-64
2021/04/22 07:41:29;;;;;;;9.65;8.23;;;;;;;18.23;49.29;100165.28;1731520;80;21582;-62
2021/04/22 07:44:00;;;;;;;9.73;7.28;;;;;;;18.26;49.32;100159.75;1735280;80;21455;-63
2021/04/22 07:46:29;;;;;;;8.50;7.53;;;;;;;18.41;49.24;100164.16;1732559;80;21056;-67
2021/04/22 07:48:58;;;;;;;8.00;7.30;;;;;;;18.55;49.02;100158.53;1734527;80;21200;-69
2021/04/22 07:51:26;;;;;;;7.25;6.55;;;;;;;18.67;48.94;100164.09;1735265;80;21598;-61
2021/04/22 07:53:54;;;;;;;9.03;7.45;;;;;;;18.80;48.76;100162.02;1722807;82;21566;-62
2021/04/22 07:56:25;;;;;;;7.70;6.90;;;;;;;18.79;47.95;100173.58;1736513;80;22335;-61
2021/04/22 07:58:55;;;;;;;8.33;6.85;;;;;;;18.63;47.66;100170.60;1785922;79;21561;-63
2021/04/22 08:01:25;;;;;;;8.78;7.53;;;;;;;18.41;47.06;100170.75;1783294;79;21554;-71
2021/04/22 08:03:53;;;;;;;14.40;9.63;;;;;;;18.18;47.80;100178.02;1776966;79;21139;-63
2021/04/22 08:06:23;;;;;;;8.53;7.70;;;;;;;18.08;48.27;100175.81;1780849;79;21634;-67
2021/04/22 08:08:52;;;;;;;8.00;7.30;;;;;;;17.97;47.94;100174.95;1779305;79;21867;-60
2021/04/22 08:11:21;;;;;;;10.25;7.10;;;;;;;17.83;47.90;100171.31;1782402;79;21542;-60
2021/04/22 08:13:49;;;;;;;7.70;6.95;;;;;;;17.69;47.47;100171.63;1785535;79;21559;-62
2021/04/22 08:16:18;;;;;;;7.62;6.92;;;;;;;17.65;48.00;100171.04;1782506;79;21665;-65
2021/04/22 08:18:47;;;;;;;10.53;8.20;;;;;;;17.74;48.35;100166.81;1791919;79;20997;-67
2021/04/22 08:21:17;;;;;;;7.45;6.70;;;;;;;17.98;48.18;100162.13;1786325;79;22324;-63
2021/04/22 08:23:45;;;;;;;8.75;7.22;;;;;;;18.24;48.07;100170.42;1785387;79;21217;-63
2021/04/22 08:26:18;;;;;;;8.65;7.42;;;;;;;18.59;47.33;100167.84;1793786;79;21083;-63
2021/04/22 08:28:47;;;;;;;7.90;7.10;;;;;;;18.92;46.70;100167.55;1783781;79;21072;-62
2021/04/22 08:31:22;;;;;;;7.37;6.33;;;;;;;19.19;46.52;100162.91;1715891;83;21028;-65
2021/04/22 08:33:54;;;;;;;7.75;6.67;;;;;;;19.38;44.69;100166.55;1769577;79;21358;-63
2021/04/22 08:36:22;;;;;;;6.85;6.15;;;;;;;19.47;44.26;100167.87;1785912;79;21098;-64
2021/04/22 08:38:51;;;;;;;6.83;6.12;;;;;;;19.42;43.82;100170.58;1707098;83;22296;-62
2021/04/22 08:41:20;;;;;;;7.75;6.37;;;;;;;19.37;44.25;100158.27;1712187;82;21147;-62
2021/04/22 08:43:48;;;;;;;8.10;6.67;;;;;;;19.39;44.16;100163.77;1783710;79;20890;-62
2021/04/22 08:46:18;;;;;;;8.35;7.40;;;;;;;19.37;44.49;100160.42;1783867;79;21263;-62
2021/04/22 08:48:46;;;;;;;8.38;6.58;;;;;;;19.23;44.46;100155.55;1783757;79;21581;-65
2021/04/22 08:51:15;;;;;;;6.25;5.65;;;;;;;19.04;44.90;100162.16;1781529;79;21357;-63
2021/04/22 08:53:45;;;;;;;6.08;5.47;;;;;;;18.90;45.41;100162.05;1698609;83;21521;-64
2021/04/22 08:56:18;;;;;;;7.40;5.78;;;;;;;18.93;45.20;100156.02;1786493;79;21020;-60
2021/04/22 08:58:46;;;;;;;9.58;5.53;;;;;;;19.05;44.00;100163.33;1785040;78;21184;-63
2021/04/22 09:01:17;;;;;;;8.88;5.35;;;;;;;19.01;43.98;100163.26;1780946;78;21067;-65
2021/04/22 09:03:47;;;;;;;6.12;5.58;;;;;;;18.92;43.96;100168.86;1793206;78;21468;-64
2021/04/22 09:06:22;;;;;;;5.97;5.33;;;;;;;18.80;44.52;100159.38;1787604;79;20918;-71
2021/04/22 09:08:53;;;;;;;5.65;5.08;;;;;;;18.68;44.82;100165.77;1790637;79;21598;-63
2021/04/22 09:11:24;;;;;;;5.45;4.97;;;;;;;18.57;44.42;100164.03;1779771;79;21601;-63
2021/04/22 09:13:54;;;;;;;6.83;5.62;;;;;;;18.48;44.41;100166.14;1783342;79;21047;-64
2021/04/22 09:16:26;;;;;;;5.55;5.00;;;;;;;18.45;44.71;100160.30;1789691;79;21155;-66
2021/04/22 09:19:06;;;;;;;7.67;5.45;;;;;;;18.50;44.58;100165.52;1784014;79;21052;-63
2021/04/22 09:21:38;;;;;;;5.83;5.15;;;;;;;18.56;44.05;100158.40;1780891;79;21529;-61
2021/04/22 09:24:14;;;;;;;10.72;5.12;;;;;;;18.58;44.24;100153.83;1783589;79;21352;-63
2021/04/22 09:26:51;;;;;;;6.35;5.22;;;;;;;18.56;44.05;100142.58;1785331;79;21057;-61
2021/04/22 09:29:36;;;;;;;7.50;5.47;;;;;;;18.46;45.23;100146.98;1777786;79;21646;-64
2021/04/22 09:32:20;;;;;;;6.55;5.87;;;;;;;18.38;45.05;100152.11;1787751;79;27044;-61
2021/04/22 09:34:59;;;;;;;5.95;5.35;;;;;;;18.25;45.10;100151.01;1789083;79;21044;-60
2021/04/22 09:37:46;;;;;;;6.72;5.78;;;;;;;18.07;45.43;100151.25;1777253;78;21357;-65
2021/04/22 09:40:36;;;;;;;12.53;6.78;;;;;;;17.95;45.81;100141.30;1782145;78;21072;-64
2021/04/22 09:43:08;;;;;;;6.17;5.58;;;;;;;17.85;46.01;100143.05;1777208;78;20934;-61
2021/04/22 09:45:39;;;;;;;6.83;6.10;;;;;;;17.77;46.23;100145.48;1777616;78;21060;-63
2021/04/22 09:48:21;;;;;;;6.70;5.97;;;;;;;17.69;45.81;100142.66;1781992;78;21681;-61
2021/04/22 09:50:51;;;;;;;7.30;6.40;;;;;;;17.65;45.92;100139.92;1793452;79;22062;-62
2021/04/22 09:53:21;;;;;;;7.10;6.17;;;;;;;17.61;46.16;100138.47;1777666;79;21060;-64
2021/04/22 09:55:50;;;;;;;7.58;6.33;;;;;;;17.57;46.27;100130.02;1774543;79;21626;-62
2021/04/22 09:58:30;;;;;;;6.53;5.75;;;;;;;17.55;46.80;100133.75;1783170;78;21641;-62
2021/04/22 10:00:58;;;;;;;6.83;6.15;;;;;;;17.56;46.46;100127.52;1781791;79;20957;-61
2021/04/22 10:03:27;;;;;;;7.22;6.47;;;;;;;17.59;46.07;100122.00;1786216;79;21342;-64
2021/04/22 10:06:00;;;;;;;6.90;6.28;;;;;;;17.60;46.41;100117.89;1781096;79;20993;-62
2021/04/22 10:08:28;;;;;;;6.95;6.25;;;;;;;17.66;47.13;100119.20;1787667;78;20929;-64
2021/04/22 10:11:07;;;;;;;8.50;6.47;;;;;;;17.68;46.22;100119.91;1782238;79;21507;-61
2021/04/22 10:13:49;;;;;;;9.08;6.97;;;;;;;17.67;46.09;100127.46;1781998;79;20930;-61
2021/04/22 10:16:19;;;;;;;7.35;6.65;;;;;;;17.72;46.00;100113.91;1717354;83;21442;-61
2021/04/22 10:18:48;;;;;;;6.58;6.08;;;;;;;17.77;45.44;100114.36;1724519;82;20974;-64
2021/04/22 10:21:17;;;;;;;8.88;6.50;;;;;;;17.77;45.77;100103.82;1787347;79;21602;-64
2021/04/22 10:23:50;;;;;;;8.00;6.28;;;;;;;17.77;45.39;100103.82;1771249;79;20953;-70
2021/04/22 10:26:21;;;;;;;8.23;6.45;;;;;;;17.76;45.64;100100.35;1784915;79;20998;-59
2021/04/22 10:28:49;;;;;;;6.75;5.67;;;;;;;17.77;45.12;100105.14;1779265;79;21188;-63
2021/04/22 10:31:20;;;;;;;6.62;5.97;;;;;;;17.78;45.15;100098.42;1769335;81;21205;-65
2021/04/22 10:33:49;;;;;;;8.98;6.22;;;;;;;17.83;44.33;100088.34;1794347;79;21518;-65
2021/04/22 10:36:21;;;;;;;8.33;6.22;;;;;;;17.85;44.10;100087.72;1799269;79;22115;-69
2021/04/22 10:38:51;;;;;;;6.47;5.75;;;;;;;17.82;43.85;100089.30;1725008;83;20982;-67
2021/04/22 10:41:21;;;;;;;6.72;6.10;;;;;;;17.76;43.85;100095.56;1729893;83;21270;-70
2021/04/22 10:43:50;;;;;;;7.03;6.42;;;;;;;17.63;44.17;100087.83;1749671;80;21053;-71
2021/04/22 10:46:19;;;;;;;9.08;6.55;;;;;;;17.57;44.98;100091.84;1747017;80;21052;-65
2021/04/22 10:48:49;;;;;;;6.97;6.37;;;;;;;17.61;45.41;100081.86;1780088;79;21657;-62
2021/04/22 10:51:18;;;;;;;6.78;6.17;;;;;;;17.71;44.97;100074.89;1798633;79;21013;-63
2021/04/22 10:53:46;;;;;;;8.98;6.28;;;;;;;17.82;45.49;100080.56;1792325;79;21361;-64
2021/04/22 10:56:27;;;;;;;9.73;6.40;;;;;;;17.85;45.18;100086.41;1779345;79;21001;-62
2021/04/22 10:58:55;;;;;;;7.95;7.00;;;;;;;17.83;44.20;100081.75;1810177;79;21539;-63
2021/04/22 11:01:37;;;;;;;10.10;8.80;;;;;;;17.78;44.32;100079.98;1811883;79;21494;-60
2021/04/22 11:04:08;;;;;;;8.03;7.10;;;;;;;17.77;44.38;100072.22;1809538;79;20881;-65
2021/04/22 11:06:39;;;;;;;8.43;6.65;;;;;;;17.86;43.85;100067.48;1811280;79;21186;-63
2021/04/22 11:09:34;;;;;;;6.95;5.37;;;;;;;17.93;44.46;100057.61;1809107;79;21039;-65
2021/04/22 11:12:04;;;;;;;8.08;5.85;;;;;;;18.05;44.47;100070.18;1762594;80;21082;-63
2021/04/22 11:14:38;;;;;;;6.97;6.28;;;;;;;18.17;44.20;100063.02;1753490;80;21622;-60
2021/04/22 11:17:06;;;;;;;6.33;5.67;;;;;;;18.24;44.16;100055.77;1751127;80;21712;-63
2021/04/22 11:19:41;;;;;;;6.33;5.72;;;;;;;18.26;42.71;100055.15;1753599;81;21609;-64
2021/04/22 11:22:27;;;;;;;6.28;5.47;;;;;;;18.32;42.32;100041.92;1762973;81;21569;-61
2021/04/22 11:25:01;;;;;;;6.67;5.97;;;;;;;18.38;41.29;100047.14;1708831;82;21045;-65
2021/04/22 11:27:33;;;;;;;7.00;5.80;;;;;;;18.44;41.35;100043.93;1732353;82;21972;-65
2021/04/22 11:30:05;;;;;;;6.60;5.85;;;;;;;18.47;41.64;100034.44;1733186;82;21643;-67
2021/04/22 11:32:42;;;;;;;7.70;5.78;;;;;;;18.45;41.15;100029.30;1759867;81;21268;-63
2021/04/22 11:35:15;;;;;;;8.78;6.05;;;;;;;18.42;41.91;100037.47;1763488;80;21644;-65
2021/04/22 11:38:02;;;;;;;6.95;5.83;;;;;;;18.29;41.76;100021.93;1763142;81;21045;-65
2021/04/22 11:40:48;;;;;;;7.25;6.53;;;;;;;18.15;42.68;100022.78;1763197;81;21567;-64
2021/04/22 11:43:26;;;;;;;8.98;6.83;;;;;;;18.01;43.04;100025.30;1762266;81;21076;-63
2021/04/22 11:45:57;;;;;;;6.75;5.97;;;;;;;17.93;42.73;100027.31;1750950;80;21207;-64
2021/04/22 11:48:26;;;;;;;7.37;6.58;;;;;;;17.84;42.76;100024.63;1757792;81;21100;-65
2021/04/22 11:50:58;;;;;;;7.40;6.50;;;;;;;17.71;43.57;100011.68;1748428;81;21017;-62
2021/04/22 11:53:36;;;;;;;6.92;6.17;;;;;;;17.63;44.36;100003.08;1759248;81;21573;-65
2021/04/22 11:56:06;;;;;;;7.90;7.12;;;;;;;17.58;43.71;100002.67;1759022;81;21006;-63
2021/04/22 11:58:38;;;;;;;7.03;6.03;;;;;;;17.53;42.99;100001.39;1759456;81;22066;-66
2021/04/22 12:01:08;;;;;;;7.85;6.92;;;;;;;17.50;43.74;100001.66;1759234;81;21108;-63
2021/04/22 12:03:39;;;;;;;5.87;5.30;;;;;;;17.51;44.06;100010.73;1762078;81;21040;-64
2021/04/22 12:06:13;;;;;;;6.45;5.80;;;;;;;17.55;43.90;99999.47;1759046;81;22156;-64
2021/04/22 12:08:43;;;;;;;6.53;5.20;;;;;;;17.59;43.30;99994.29;1761009;81;21659;-63
2021/04/22 12:11:19;;;;;;;7.83;5.40;;;;;;;17.69;42.22;99993.86;1745029;81;21179;-66
2021/04/22 12:13:49;;;;;;;8.90;5.87;;;;;;;17.81;41.86;99991.48;1726857;82;21025;-61
2021/04/22 12:16:19;;;;;;;8.98;6.03;;;;;;;17.89;41.49;99992.98;1708730;82;21076;-62
2021/04/22 12:18:48;;;;;;;10.45;6.03;;;;;;;17.96;40.80;99988.02;1734369;81;21210;-62
2021/04/22 12:21:19;;;;;;;7.47;5.30;;;;;;;17.95;40.75;99982.39;1730415;83;21622;-65
2021/04/22 12:23:54;;;;;;;6.28;4.53;;;;;;;17.95;42.35;99986.34;1730965;82;21247;-61
2021/04/22 12:26:30;;;;;;;6.22;5.47;;;;;;;17.91;43.40;99977.87;1730498;82;21049;-67
2021/04/22 12:29:04;;;;;;;6.22;4.83;;;;;;;17.85;43.83;99978.41;1731299;82;21595;-62
2021/04/22 12:31:39;;;;;;;5.80;5.20;;;;;;;17.74;43.95;99982.45;1727692;82;21811;-63
2021/04/22 12:34:16;;;;;;;;;;;;;;;17.65;43.97;99982.75;1732111;82;21582;-62
2021/04/22 12:37:06;;;;;;;5.62;5.03;;;;;;;17.60;43.58;99977.50;1731001;82;22071;-62
2021/04/22 12:39:40;;;;;;;6.55;5.37;;;;;;;17.58;42.50;99975.03;1729167;82;21051;-64
2021/04/22 12:42:23;;;;;;;8.03;5.58;;;;;;;17.57;42.05;99980.42;1731202;82;21049;-62
2021/04/22 12:45:21;;;;;;;5.35;4.85;;;;;;;17.53;42.79;99987.75;1731099;82;21693;-64
2021/04/22 12:47:54;;;;;;;6.30;4.67;;;;;;;17.46;43.53;99981.34;1730263;81;21531;-68
2021/04/22 12:50:30;;;;;;;5.37;4.87;;;;;;;17.41;43.76;99969.05;1729291;82;21197;-63
2021/04/22 12:53:22;;;;;;;8.88;5.40;;;;;;;17.42;44.27;99961.98;1730015;82;21057;-66
2021/04/22 12:56:02;;;;;;;7.17;5.42;;;;;;;17.54;43.88;99962.25;1731119;82;21038;-62
2021/04/22 12:58:45;;;;;;;8.28;5.08;;;;;;;17.70;43.19;99973.14;1731313;82;21085;-64
2021/04/22 13:01:19;;;;;;;8.30;5.05;;;;;;;17.83;43.23;99960.58;1731045;83;21644;-62
2021/04/22 13:03:50;;;;;;;5.15;4.20;;;;;;;17.90;42.27;99981.47;1730941;83;21263;-63
2021/04/22 13:06:20;;;;;;;6.90;4.60;;;;;;;17.89;42.29;99977.66;1727294;83;21013;-63
2021/04/22 13:08:53;;;;;;;7.03;4.12;;;;;;;17.77;43.51;99986.13;1730479;81;21100;-60
2021/04/22 13:11:24;;;;;;;7.70;4.72;;;;;;;17.71;44.01;99980.56;1729956;81;21697;-61
2021/04/22 13:13:59;;;;;;;8.70;4.70;;;;;;;17.67;44.97;99986.57;1728369;83;20957;-67
2021/04/22 13:16:31;;;;;;;10.63;4.53;;;;;;;17.63;44.86;99991.72;1727983;83;21387;-65
2021/04/22 13:19:04;;;;;;;7.58;4.15;;;;;;;17.55;43.34;99991.56;1727498;81;21618;-62
2021/04/22 13:21:38;;;;;;;4.22;3.83;;;;;;;17.37;43.12;99993.96;1728231;82;21660;-64
2021/04/22 13:24:12;;;;;;;7.20;3.60;;;;;;;17.20;43.75;99995.86;1730878;82;21107;-64
2021/04/22 13:26:52;;;;;;;5.00;3.72;;;;;;;16.98;44.49;99996.35;1698687;82;21072;-65
2021/04/22 13:29:23;;;;;;;7.10;3.37;;;;;;;16.79;44.87;99989.66;1728118;82;22078;-62
2021/04/22 13:32:10;;;;;;;6.80;3.77;;;;;;;16.63;45.41;99982.15;1729126;82;20996;-60
2021/04/22 13:34:50;;;;;;;3.65;3.35;;;;;;;16.54;45.46;99986.84;1730061;82;20941;-70
2021/04/22 13:37:20;;;;;;;7.12;3.75;;;;;;;16.43;45.48;99982.92;1730250;81;21170;-66
2021/04/22 13:39:52;;;;;;;4.60;3.17;;;;;;;16.36;45.48;99984.41;1725299;81;21025;-61
2021/04/22 13:42:24;;;;;;;10.58;3.77;;;;;;;16.31;45.53;99995.28;1730699;82;22893;-62
2021/04/22 13:44:55;;;;;;;4.20;3.90;;;;;;;16.26;45.12;99986.10;1731623;82;21672;-63
2021/04/22 13:47:24;;;;;;;3.47;3.27;;;;;;;16.21;45.25;99979.06;1728901;82;20969;-66
2021/04/22 13:49:53;;;;;;;3.85;3.52;;;;;;;16.14;45.59;99989.22;1730532;82;21495;-61
2021/04/22 13:52:23;;;;;;;4.58;3.27;;;;;;;16.07;45.87;99981.47;1731755;82;20961;-61
2021/04/22 13:55:01;;;;;;;4.67;3.27;;;;;;;16.00;46.24;99986.37;1731716;82;21129;-61
2021/04/22 13:57:32;;;;;;;3.77;3.47;;;;;;;15.94;46.76;99989.52;1731485;82;21011;-62
2021/04/22 14:00:09;;;;;;;3.22;3.02;;;;;;;15.89;47.00;99982.47;1730722;82;20946;-62
